Terminal Aerodrome Forecast
Issued by NWS Wichita, KS

Home | Current Version | Previous Version | Text Only | Print | Product List | Glossary Off
Versions: 1 2 3 4 5 6 7 8 9 10 11 12 13 14 15 16 17 18 19 20 21 22 23 24 25 26

000
FTUS43 KICT 241738
TAFICT
TAF
KICT 241738Z 2418/2518 31015KT P6SM OVC015
      TEMPO 2418/2419 BKN008 OVC015
     FM241900 33018G25KT P6SM SCT015
     FM242300 31015KT P6SM SCT250
     FM250100 VRB05KT P6SM SKC
     FM251000 17008KT P6SM SKC=

USA.gov is the U.S. government's official web portal to all federal, state and local government web resources and services.